sensor_id;sensor_type;location;lat;lon;timestamp;temperature;humidity
4701;DHT22;8724;51.272;6.554;2023-02-15T00:01:11;10.30;99.90
4701;DHT22;8724;51.272;6.554;2023-02-15T00:03:40;10.30;99.90
4701;DHT22;8724;51.272;6.554;2023-02-15T00:06:08;10.30;99.90
4701;DHT22;8724;51.272;6.554;2023-02-15T00:08:36;10.30;99.90
4701;DHT22;8724;51.272;6.554;2023-02-15T00:11:06;10.20;99.90
4701;DHT22;8724;51.272;6.554;2023-02-15T00:13:34;10.20;99.90
4701;DHT22;8724;51.272;6.554;2023-02-15T00:16:06;10.20;99.90
4701;DHT22;8724;51.272;6.554;2023-02-15T00:18:37;10.20;99.90
4701;DHT22;8724;51.272;6.554;2023-02-15T00:21:07;10.20;99.90
4701;DHT22;8724;51.272;6.554;2023-02-15T00:23:36;10.20;99.90
4701;DHT22;8724;51.272;6.554;2023-02-15T00:26:05;10.20;99.90
4701;DHT22;8724;51.272;6.554;2023-02-15T00:28:34;10.20;99.90
4701;DHT22;8724;51.272;6.554;2023-02-15T00:31:05;10.20;99.90
4701;DHT22;8724;51.272;6.554;2023-02-15T00:33:36;10.10;99.90
4701;DHT22;8724;51.272;6.554;2023-02-15T00:36:06;10.10;99.90
4701;DHT22;8724;51.272;6.554;2023-02-15T00:38:35;10.10;99.90
4701;DHT22;8724;51.272;6.554;2023-02-15T00:41:06;10.10;99.90
4701;DHT22;8724;51.272;6.554;2023-02-15T00:43:35;10.10;99.90
4701;DHT22;8724;51.272;6.554;2023-02-15T00:46:05;10.10;99.90
4701;DHT22;8724;51.272;6.554;2023-02-15T00:48:33;10.10;99.90
4701;DHT22;8724;51.272;6.554;2023-02-15T00:51:04;10.00;99.90
4701;DHT22;8724;51.272;6.554;2023-02-15T00:53:33;10.00;99.90
4701;DHT22;8724;51.272;6.554;2023-02-15T00:56:02;10.00;99.90
4701;DHT22;8724;51.272;6.554;2023-02-15T00:58:31;10.00;99.90
4701;DHT22;8724;51.272;6.554;2023-02-15T01:01:03;10.00;99.90
4701;DHT22;8724;51.272;6.554;2023-02-15T01:03:33;9.90;99.90
4701;DHT22;8724;51.272;6.554;2023-02-15T01:06:05;9.90;99.90
4701;DHT22;8724;51.272;6.554;2023-02-15T01:08:34;9.90;99.90
4701;DHT22;8724;51.272;6.554;2023-02-15T01:11:04;9.90;99.90
4701;DHT22;8724;51.272;6.554;2023-02-15T01:13:33;9.90;99.90
4701;DHT22;8724;51.272;6.554;2023-02-15T01:16:02;9.90;99.90
4701;DHT22;8724;51.272;6.554;2023-02-15T01:18:32;9.90;99.90
4701;DHT22;8724;51.272;6.554;2023-02-15T01:21:10;9.90;99.90
4701;DHT22;8724;51.272;6.554;2023-02-15T01:23:43;9.90;99.90
4701;DHT22;8724;51.272;6.554;2023-02-15T01:26:12;9.80;99.90
4701;DHT22;8724;51.272;6.554;2023-02-15T01:28:43;9.80;99.90
4701;DHT22;8724;51.272;6.554;2023-02-15T01:31:13;9.80;99.90
4701;DHT22;8724;51.272;6.554;2023-02-15T01:33:44;9.80;99.90
4701;DHT22;8724;51.272;6.554;2023-02-15T01:36:14;9.80;99.90
4701;DHT22;8724;51.272;6.554;2023-02-15T01:38:44;9.80;99.90
4701;DHT22;8724;51.272;6.554;2023-02-15T01:41:13;9.80;99.90
4701;DHT22;8724;51.272;6.554;2023-02-15T01:43:51;9.80;99.90
4701;DHT22;8724;51.272;6.554;2023-02-15T01:46:26;9.70;99.90
4701;DHT22;8724;51.272;6.554;2023-02-15T01:49:01;9.70;99.90
4701;DHT22;8724;51.272;6.554;2023-02-15T01:51:34;9.70;99.90
4701;DHT22;8724;51.272;6.554;2023-02-15T01:54:09;9.70;99.90
4701;DHT22;8724;51.272;6.554;2023-02-15T01:56:40;9.70;99.90
4701;DHT22;8724;51.272;6.554;2023-02-15T01:59:12;9.70;99.90
4701;DHT22;8724;51.272;6.554;2023-02-15T02:01:43;9.70;99.90
4701;DHT22;8724;51.272;6.554;2023-02-15T02:04:16;9.60;99.90
4701;DHT22;8724;51.272;6.554;2023-02-15T02:06:48;9.70;99.90
4701;DHT22;8724;51.272;6.554;2023-02-15T02:09:17;9.60;99.90
4701;DHT22;8724;51.272;6.554;2023-02-15T02:11:46;9.60;99.90
4701;DHT22;8724;51.272;6.554;2023-02-15T02:14:16;9.60;99.90
4701;DHT22;8724;51.272;6.554;2023-02-15T02:16:53;9.50;99.90
4701;DHT22;8724;51.272;6.554;2023-02-15T02:34:54;9.50;99.90
4701;DHT22;8724;51.272;6.554;2023-02-15T02:37:27;9.50;99.90
4701;DHT22;8724;51.272;6.554;2023-02-15T02:40:01;9.50;99.90
4701;DHT22;8724;51.272;6.554;2023-02-15T02:42:37;9.50;99.90
4701;DHT22;8724;51.272;6.554;2023-02-15T02:45:09;9.50;99.90
4701;DHT22;8724;51.272;6.554;2023-02-15T02:47:46;9.40;99.90
4701;DHT22;8724;51.272;6.554;2023-02-15T02:50:21;9.40;99.90
4701;DHT22;8724;51.272;6.554;2023-02-15T02:52:51;9.40;99.90
4701;DHT22;8724;51.272;6.554;2023-02-15T02:55:23;9.40;99.90
4701;DHT22;8724;51.272;6.554;2023-02-15T02:57:54;9.40;99.90
4701;DHT22;8724;51.272;6.554;2023-02-15T03:00:25;9.40;99.90
4701;DHT22;8724;51.272;6.554;2023-02-15T03:02:58;9.40;99.90
4701;DHT22;8724;51.272;6.554;2023-02-15T03:05:35;9.40;99.90
4701;DHT22;8724;51.272;6.554;2023-02-15T03:08:08;9.30;99.90
4701;DHT22;8724;51.272;6.554;2023-02-15T03:10:40;9.30;99.90
4701;DHT22;8724;51.272;6.554;2023-02-15T03:13:09;9.30;99.90
4701;DHT22;8724;51.272;6.554;2023-02-15T03:15:42;9.30;99.90
4701;DHT22;8724;51.272;6.554;2023-02-15T03:18:34;9.30;99.90
4701;DHT22;8724;51.272;6.554;2023-02-15T03:21:06;9.30;99.90
4701;DHT22;8724;51.272;6.554;2023-02-15T03:23:37;9.30;99.90
4701;DHT22;8724;51.272;6.554;2023-02-15T03:26:08;9.20;99.90
4701;DHT22;8724;51.272;6.554;2023-02-15T03:28:42;9.20;99.90
4701;DHT22;8724;51.272;6.554;2023-02-15T03:31:13;9.20;99.90
4701;DHT22;8724;51.272;6.554;2023-02-15T03:33:48;9.20;99.90
4701;DHT22;8724;51.272;6.554;2023-02-15T03:36:22;9.20;99.90
4701;DHT22;8724;51.272;6.554;2023-02-15T03:38:56;9.20;99.90
4701;DHT22;8724;51.272;6.554;2023-02-15T03:41:29;9.20;99.90
4701;DHT22;8724;51.272;6.554;2023-02-15T03:44:04;9.20;99.90
4701;DHT22;8724;51.272;6.554;2023-02-15T03:46:37;9.20;99.90
4701;DHT22;8724;51.272;6.554;2023-02-15T03:49:10;9.20;99.90
4701;DHT22;8724;51.272;6.554;2023-02-15T03:51:44;9.20;99.90
4701;DHT22;8724;51.272;6.554;2023-02-15T03:54:16;9.10;99.90
4701;DHT22;8724;51.272;6.554;2023-02-15T03:57:07;9.50;99.90
4701;DHT22;8724;51.272;6.554;2023-02-15T03:59:56;9.10;99.90
4701;DHT22;8724;51.272;6.554;2023-02-15T04:02:54;9.10;99.90
4701;DHT22;8724;51.272;6.554;2023-02-15T04:05:27;9.10;99.90
4701;DHT22;8724;51.272;6.554;2023-02-15T04:07:56;9.10;99.90
4701;DHT22;8724;51.272;6.554;2023-02-15T04:10:25;9.10;99.90
4701;DHT22;8724;51.272;6.554;2023-02-15T04:13:19;9.10;99.90
4701;DHT22;8724;51.272;6.554;2023-02-15T04:15:48;9.10;99.90
4701;DHT22;8724;51.272;6.554;2023-02-15T04:18:36;9.30;99.90
4701;DHT22;8724;51.272;6.554;2023-02-15T04:21:24;9.00;99.90
4701;DHT22;8724;51.272;6.554;2023-02-15T04:24:13;9.00;99.90
4701;DHT22;8724;51.272;6.554;2023-02-15T04:27:00;9.00;99.90
4701;DHT22;8724;51.272;6.554;2023-02-15T04:29:30;9.00;99.90
4701;DHT22;8724;51.272;6.554;2023-02-15T04:32:01;9.00;99.90
4701;DHT22;8724;51.272;6.554;2023-02-15T04:34:30;9.00;99.90
4701;DHT22;8724;51.272;6.554;2023-02-15T04:37:00;8.90;99.90
4701;DHT22;8724;51.272;6.554;2023-02-15T04:39:33;8.90;99.90
4701;DHT22;8724;51.272;6.554;2023-02-15T04:42:07;8.90;99.90
4701;DHT22;8724;51.272;6.554;2023-02-15T04:44:39;8.90;99.90
4701;DHT22;8724;51.272;6.554;2023-02-15T04:47:15;8.90;99.90
4701;DHT22;8724;51.272;6.554;2023-02-15T04:49:49;8.90;99.90
4701;DHT22;8724;51.272;6.554;2023-02-15T04:52:24;8.90;99.90
4701;DHT22;8724;51.272;6.554;2023-02-15T04:55:08;8.80;99.90
4701;DHT22;8724;51.272;6.554;2023-02-15T04:57:39;8.90;99.90
4701;DHT22;8724;51.272;6.554;2023-02-15T05:00:13;8.80;99.90
4701;DHT22;8724;51.272;6.554;2023-02-15T05:02:44;8.90;99.90
4701;DHT22;8724;51.272;6.554;2023-02-15T05:05:19;8.80;99.90
4701;DHT22;8724;51.272;6.554;2023-02-15T05:07:52;8.80;99.90
4701;DHT22;8724;51.272;6.554;2023-02-15T05:10:25;8.80;99.90
4701;DHT22;8724;51.272;6.554;2023-02-15T05:12:58;8.80;99.90
4701;DHT22;8724;51.272;6.554;2023-02-15T05:15:29;8.80;99.90
4701;DHT22;8724;51.272;6.554;2023-02-15T05:18:04;9.10;99.90
4701;DHT22;8724;51.272;6.554;2023-02-15T05:20:35;8.80;99.90
4701;DHT22;8724;51.272;6.554;2023-02-15T05:23:10;8.80;99.90
4701;DHT22;8724;51.272;6.554;2023-02-15T05:25:51;8.70;99.90
4701;DHT22;8724;51.272;6.554;2023-02-15T05:28:47;8.70;99.90
4701;DHT22;8724;51.272;6.554;2023-02-15T05:31:17;8.70;99.90
4701;DHT22;8724;51.272;6.554;2023-02-15T05:33:46;8.70;99.90
4701;DHT22;8724;51.272;6.554;2023-02-15T05:36:14;8.70;99.90
4701;DHT22;8724;51.272;6.554;2023-02-15T05:38:43;8.70;99.90
4701;DHT22;8724;51.272;6.554;2023-02-15T05:41:13;8.70;99.90
4701;DHT22;8724;51.272;6.554;2023-02-15T05:43:42;8.60;99.90
4701;DHT22;8724;51.272;6.554;2023-02-15T05:46:10;8.60;99.90
4701;DHT22;8724;51.272;6.554;2023-02-15T05:48:39;8.60;99.90
4701;DHT22;8724;51.272;6.554;2023-02-15T05:51:09;8.60;99.90
4701;DHT22;8724;51.272;6.554;2023-02-15T05:53:40;8.60;99.90
4701;DHT22;8724;51.272;6.554;2023-02-15T05:56:09;8.70;99.90
4701;DHT22;8724;51.272;6.554;2023-02-15T05:58:40;8.60;99.90
4701;DHT22;8724;51.272;6.554;2023-02-15T06:01:09;8.60;99.90
4701;DHT22;8724;51.272;6.554;2023-02-15T06:03:38;8.60;99.90
4701;DHT22;8724;51.272;6.554;2023-02-15T06:06:07;8.60;99.90
4701;DHT22;8724;51.272;6.554;2023-02-15T06:08:36;8.60;99.90
4701;DHT22;8724;51.272;6.554;2023-02-15T06:11:05;8.50;99.90
4701;DHT22;8724;51.272;6.554;2023-02-15T06:13:34;8.50;99.90
4701;DHT22;8724;51.272;6.554;2023-02-15T06:16:09;8.50;99.90
4701;DHT22;8724;51.272;6.554;2023-02-15T06:18:37;8.50;99.90
4701;DHT22;8724;51.272;6.554;2023-02-15T06:21:06;8.50;99.90
4701;DHT22;8724;51.272;6.554;2023-02-15T06:23:34;8.50;99.90
4701;DHT22;8724;51.272;6.554;2023-02-15T06:26:02;8.50;99.90
4701;DHT22;8724;51.272;6.554;2023-02-15T06:28:31;8.40;99.90
4701;DHT22;8724;51.272;6.554;2023-02-15T06:30:59;8.50;99.90
4701;DHT22;8724;51.272;6.554;2023-02-15T06:33:29;8.40;99.90
4701;DHT22;8724;51.272;6.554;2023-02-15T06:36:00;8.40;99.90
4701;DHT22;8724;51.272;6.554;2023-02-15T06:38:31;8.40;99.90
4701;DHT22;8724;51.272;6.554;2023-02-15T06:40:59;8.40;99.90
4701;DHT22;8724;51.272;6.554;2023-02-15T06:43:27;8.40;99.90
4701;DHT22;8724;51.272;6.554;2023-02-15T06:45:58;8.40;99.90
4701;DHT22;8724;51.272;6.554;2023-02-15T06:48:29;8.30;99.90
4701;DHT22;8724;51.272;6.554;2023-02-15T06:50:57;8.30;99.90
4701;DHT22;8724;51.272;6.554;2023-02-15T06:53:26;8.30;99.90
4701;DHT22;8724;51.272;6.554;2023-02-15T06:56:00;8.30;99.90
4701;DHT22;8724;51.272;6.554;2023-02-15T06:58:30;8.30;99.90
4701;DHT22;8724;51.272;6.554;2023-02-15T07:00:58;8.30;99.90
4701;DHT22;8724;51.272;6.554;2023-02-15T07:03:26;8.30;99.90
4701;DHT22;8724;51.272;6.554;2023-02-15T07:05:57;8.30;99.90
4701;DHT22;8724;51.272;6.554;2023-02-15T07:08:27;8.30;99.90
4701;DHT22;8724;51.272;6.554;2023-02-15T07:10:56;8.50;99.90
4701;DHT22;8724;51.272;6.554;2023-02-15T07:13:45;8.30;99.90
4701;DHT22;8724;51.272;6.554;2023-02-15T07:16:13;8.30;99.90
4701;DHT22;8724;51.272;6.554;2023-02-15T07:18:41;8.30;99.90
4701;DHT22;8724;51.272;6.554;2023-02-15T07:21:11;8.30;99.90
4701;DHT22;8724;51.272;6.554;2023-02-15T07:23:40;8.20;99.90
4701;DHT22;8724;51.272;6.554;2023-02-15T07:26:08;8.20;99.90
4701;DHT22;8724;51.272;6.554;2023-02-15T07:28:37;8.20;99.90
4701;DHT22;8724;51.272;6.554;2023-02-15T07:31:06;8.60;99.90
4701;DHT22;8724;51.272;6.554;2023-02-15T07:33:34;8.20;99.90
4701;DHT22;8724;51.272;6.554;2023-02-15T07:36:04;8.30;99.90
4701;DHT22;8724;51.272;6.554;2023-02-15T07:38:35;8.20;99.90
4701;DHT22;8724;51.272;6.554;2023-02-15T07:41:05;8.20;99.90
4701;DHT22;8724;51.272;6.554;2023-02-15T07:43:36;8.50;99.90
4701;DHT22;8724;51.272;6.554;2023-02-15T07:46:06;8.20;99.90
4701;DHT22;8724;51.272;6.554;2023-02-15T07:48:36;8.30;99.90
4701;DHT22;8724;51.272;6.554;2023-02-15T07:51:06;8.30;99.90
4701;DHT22;8724;51.272;6.554;2023-02-15T07:53:38;8.20;99.90
4701;DHT22;8724;51.272;6.554;2023-02-15T07:56:09;8.30;99.90
4701;DHT22;8724;51.272;6.554;2023-02-15T07:58:38;8.20;99.90
4701;DHT22;8724;51.272;6.554;2023-02-15T08:01:21;8.30;99.90
4701;DHT22;8724;51.272;6.554;2023-02-15T08:03:50;8.30;99.90
4701;DHT22;8724;51.272;6.554;2023-02-15T08:06:19;8.30;99.90
4701;DHT22;8724;51.272;6.554;2023-02-15T08:08:49;8.30;99.90
4701;DHT22;8724;51.272;6.554;2023-02-15T08:11:20;8.30;99.90
4701;DHT22;8724;51.272;6.554;2023-02-15T08:13:58;8.30;99.90
4701;DHT22;8724;51.272;6.554;2023-02-15T08:16:29;8.30;99.90
4701;DHT22;8724;51.272;6.554;2023-02-15T08:18:59;8.30;99.90
4701;DHT22;8724;51.272;6.554;2023-02-15T08:21:29;8.30;99.90
4701;DHT22;8724;51.272;6.554;2023-02-15T08:23:59;8.40;99.90
4701;DHT22;8724;51.272;6.554;2023-02-15T08:26:29;8.40;99.90
4701;DHT22;8724;51.272;6.554;2023-02-15T08:28:58;8.40;99.90
4701;DHT22;8724;51.272;6.554;2023-02-15T08:31:27;8.40;99.90
4701;DHT22;8724;51.272;6.554;2023-02-15T08:33:57;8.40;99.90
4701;DHT22;8724;51.272;6.554;2023-02-15T08:36:27;8.40;99.90
4701;DHT22;8724;51.272;6.554;2023-02-15T08:38:59;8.70;99.90
4701;DHT22;8724;51.272;6.554;2023-02-15T08:41:30;8.40;99.90
4701;DHT22;8724;51.272;6.554;2023-02-15T08:44:00;8.40;99.90
4701;DHT22;8724;51.272;6.554;2023-02-15T08:46:31;8.40;99.90
4701;DHT22;8724;51.272;6.554;2023-02-15T08:49:00;8.40;99.90
4701;DHT22;8724;51.272;6.554;2023-02-15T08:51:31;8.50;99.90
4701;DHT22;8724;51.272;6.554;2023-02-15T08:54:04;8.50;99.90
4701;DHT22;8724;51.272;6.554;2023-02-15T08:56:35;8.50;99.90
4701;DHT22;8724;51.272;6.554;2023-02-15T08:59:04;8.50;99.90
4701;DHT22;8724;51.272;6.554;2023-02-15T09:01:34;8.50;99.90
4701;DHT22;8724;51.272;6.554;2023-02-15T09:04:04;8.50;99.90
4701;DHT22;8724;51.272;6.554;2023-02-15T09:06:36;8.50;99.90
4701;DHT22;8724;51.272;6.554;2023-02-15T09:09:07;8.50;99.90
4701;DHT22;8724;51.272;6.554;2023-02-15T09:11:37;8.50;99.90
4701;DHT22;8724;51.272;6.554;2023-02-15T09:14:08;8.60;99.90
4701;DHT22;8724;51.272;6.554;2023-02-15T09:16:37;8.60;99.90
4701;DHT22;8724;51.272;6.554;2023-02-15T09:19:07;8.60;99.90
4701;DHT22;8724;51.272;6.554;2023-02-15T09:21:36;8.60;99.90
4701;DHT22;8724;51.272;6.554;2023-02-15T09:24:09;8.60;99.90
4701;DHT22;8724;51.272;6.554;2023-02-15T09:26:39;8.60;99.90
4701;DHT22;8724;51.272;6.554;2023-02-15T09:29:10;8.70;99.90
4701;DHT22;8724;51.272;6.554;2023-02-15T09:31:40;8.60;99.90
4701;DHT22;8724;51.272;6.554;2023-02-15T09:34:12;8.70;99.90
4701;DHT22;8724;51.272;6.554;2023-02-15T09:36:41;8.70;99.90
4701;DHT22;8724;51.272;6.554;2023-02-15T09:39:12;8.70;99.90
4701;DHT22;8724;51.272;6.554;2023-02-15T09:51:02;8.70;99.90
4701;DHT22;8724;51.272;6.554;2023-02-15T09:53:58;8.80;99.90
4701;DHT22;8724;51.272;6.554;2023-02-15T09:56:39;8.80;99.90
4701;DHT22;8724;51.272;6.554;2023-02-15T09:59:19;8.80;99.90
4701;DHT22;8724;51.272;6.554;2023-02-15T10:01:59;8.90;99.90
4701;DHT22;8724;51.272;6.554;2023-02-15T10:04:42;8.90;99.90
4701;DHT22;8724;51.272;6.554;2023-02-15T10:07:30;8.90;99.90
4701;DHT22;8724;51.272;6.554;2023-02-15T10:10:09;8.90;99.90
4701;DHT22;8724;51.272;6.554;2023-02-15T10:12:52;8.90;99.90
4701;DHT22;8724;51.272;6.554;2023-02-15T10:15:47;9.00;99.90
4701;DHT22;8724;51.272;6.554;2023-02-15T10:18:36;9.00;99.90
4701;DHT22;8724;51.272;6.554;2023-02-15T10:21:16;9.00;99.90
4701;DHT22;8724;51.272;6.554;2023-02-15T10:26:43;9.00;99.90
4701;DHT22;8724;51.272;6.554;2023-02-15T10:29:22;9.10;99.90
4701;DHT22;8724;51.272;6.554;2023-02-15T10:32:01;9.10;99.90
4701;DHT22;8724;51.272;6.554;2023-02-15T10:34:37;9.10;99.90
4701;DHT22;8724;51.272;6.554;2023-02-15T10:37:34;9.10;99.90
4701;DHT22;8724;51.272;6.554;2023-02-15T10:40:11;9.20;99.90
4701;DHT22;8724;51.272;6.554;2023-02-15T10:42:53;9.20;99.90
4701;DHT22;8724;51.272;6.554;2023-02-15T10:45:31;9.20;99.90
4701;DHT22;8724;51.272;6.554;2023-02-15T10:50:56;9.20;99.90
4701;DHT22;8724;51.272;6.554;2023-02-15T10:53:44;9.30;99.90
4701;DHT22;8724;51.272;6.554;2023-02-15T10:56:20;9.30;99.90
4701;DHT22;8724;51.272;6.554;2023-02-15T10:59:14;9.30;99.90
4701;DHT22;8724;51.272;6.554;2023-02-15T11:01:50;9.40;99.90
4701;DHT22;8724;51.272;6.554;2023-02-15T11:04:45;9.40;99.90
4701;DHT22;8724;51.272;6.554;2023-02-15T11:07:20;9.40;99.90
4701;DHT22;8724;51.272;6.554;2023-02-15T11:09:53;9.40;99.90
4701;DHT22;8724;51.272;6.554;2023-02-15T11:12:25;9.50;99.90
4701;DHT22;8724;51.272;6.554;2023-02-15T11:14:58;9.50;99.90
4701;DHT22;8724;51.272;6.554;2023-02-15T11:17:35;9.50;99.90
4701;DHT22;8724;51.272;6.554;2023-02-15T11:20:11;9.50;99.90
4701;DHT22;8724;51.272;6.554;2023-02-15T11:22:47;9.80;99.90
4701;DHT22;8724;51.272;6.554;2023-02-15T11:25:20;9.60;99.90
4701;DHT22;8724;51.272;6.554;2023-02-15T11:27:50;9.60;99.90
4701;DHT22;8724;51.272;6.554;2023-02-15T11:30:21;9.70;99.90
4701;DHT22;8724;51.272;6.554;2023-02-15T11:32:52;9.70;99.90
4701;DHT22;8724;51.272;6.554;2023-02-15T11:35:26;9.70;99.90
4701;DHT22;8724;51.272;6.554;2023-02-15T11:38:02;9.70;99.90
4701;DHT22;8724;51.272;6.554;2023-02-15T11:40:36;9.70;99.90
4701;DHT22;8724;51.272;6.554;2023-02-15T11:43:13;9.90;99.90
4701;DHT22;8724;51.272;6.554;2023-02-15T11:45:45;9.90;99.90
4701;DHT22;8724;51.272;6.554;2023-02-15T11:48:16;9.90;99.90
4701;DHT22;8724;51.272;6.554;2023-02-15T11:50:45;9.90;99.90
4701;DHT22;8724;51.272;6.554;2023-02-15T11:53:15;9.90;99.90
4701;DHT22;8724;51.272;6.554;2023-02-15T11:55:46;10.00;99.90
4701;DHT22;8724;51.272;6.554;2023-02-15T11:58:23;10.00;99.90
4701;DHT22;8724;51.272;6.554;2023-02-15T12:00:58;10.00;99.90
4701;DHT22;8724;51.272;6.554;2023-02-15T12:03:40;10.00;99.90
4701;DHT22;8724;51.272;6.554;2023-02-15T12:06:16;10.10;99.90
4701;DHT22;8724;51.272;6.554;2023-02-15T12:08:52;10.10;99.90
4701;DHT22;8724;51.272;6.554;2023-02-15T12:11:27;10.10;99.90
4701;DHT22;8724;51.272;6.554;2023-02-15T12:14:01;10.20;99.90
4701;DHT22;8724;51.272;6.554;2023-02-15T12:16:34;10.20;99.90
4701;DHT22;8724;51.272;6.554;2023-02-15T12:19:24;10.20;99.90
4701;DHT22;8724;51.272;6.554;2023-02-15T12:21:57;10.30;99.90
4701;DHT22;8724;51.272;6.554;2023-02-15T12:24:28;10.30;99.90
4701;DHT22;8724;51.272;6.554;2023-02-15T12:27:03;10.30;99.90
4701;DHT22;8724;51.272;6.554;2023-02-15T12:29:39;10.40;99.90
4701;DHT22;8724;51.272;6.554;2023-02-15T12:32:15;10.40;99.90
4701;DHT22;8724;51.272;6.554;2023-02-15T12:34:46;10.40;99.90
4701;DHT22;8724;51.272;6.554;2023-02-15T12:37:17;10.50;99.90
4701;DHT22;8724;51.272;6.554;2023-02-15T12:39:55;10.50;99.90
4701;DHT22;8724;51.272;6.554;2023-02-15T12:42:24;10.50;99.90
4701;DHT22;8724;51.272;6.554;2023-02-15T12:44:56;10.60;99.90
4701;DHT22;8724;51.272;6.554;2023-02-15T12:47:26;10.60;99.90
4701;DHT22;8724;51.272;6.554;2023-02-15T12:50:24;10.70;99.90
4701;DHT22;8724;51.272;6.554;2023-02-15T12:53:07;10.70;99.90
4701;DHT22;8724;51.272;6.554;2023-02-15T12:55:36;10.80;99.90
4701;DHT22;8724;51.272;6.554;2023-02-15T12:58:16;10.80;99.90
4701;DHT22;8724;51.272;6.554;2023-02-15T13:00:45;10.80;99.90
4701;DHT22;8724;51.272;6.554;2023-02-15T13:03:19;10.80;99.90
4701;DHT22;8724;51.272;6.554;2023-02-15T13:05:51;10.80;99.90
4701;DHT22;8724;51.272;6.554;2023-02-15T13:08:22;10.90;99.90
4701;DHT22;8724;51.272;6.554;2023-02-15T13:10:57;11.00;99.90
4701;DHT22;8724;51.272;6.554;2023-02-15T13:13:28;11.00;99.90
4701;DHT22;8724;51.272;6.554;2023-02-15T13:15:59;11.00;99.90
4701;DHT22;8724;51.272;6.554;2023-02-15T13:18:33;11.10;99.90
4701;DHT22;8724;51.272;6.554;2023-02-15T13:21:10;11.10;99.90
4701;DHT22;8724;51.272;6.554;2023-02-15T13:23:43;11.20;99.90
4701;DHT22;8724;51.272;6.554;2023-02-15T13:26:15;11.20;99.90
4701;DHT22;8724;51.272;6.554;2023-02-15T13:28:47;11.20;99.90
4701;DHT22;8724;51.272;6.554;2023-02-15T13:31:18;11.30;99.90
4701;DHT22;8724;51.272;6.554;2023-02-15T13:33:50;11.30;99.90
4701;DHT22;8724;51.272;6.554;2023-02-15T13:36:25;11.30;99.90
4701;DHT22;8724;51.272;6.554;2023-02-15T13:39:07;11.40;99.90
4701;DHT22;8724;51.272;6.554;2023-02-15T13:41:50;11.40;99.90
4701;DHT22;8724;51.272;6.554;2023-02-15T13:44:47;11.50;99.90
4701;DHT22;8724;51.272;6.554;2023-02-15T13:47:23;11.50;99.90
4701;DHT22;8724;51.272;6.554;2023-02-15T13:50:07;11.60;99.90
4701;DHT22;8724;51.272;6.554;2023-02-15T13:52:47;11.60;99.90
4701;DHT22;8724;51.272;6.554;2023-02-15T13:55:26;11.60;99.90
4701;DHT22;8724;51.272;6.554;2023-02-15T13:58:17;11.70;99.90
4701;DHT22;8724;51.272;6.554;2023-02-15T14:00:54;11.70;99.90
4701;DHT22;8724;51.272;6.554;2023-02-15T14:06:47;11.80;99.90
4701;DHT22;8724;51.272;6.554;2023-02-15T14:09:27;11.90;99.90
4701;DHT22;8724;51.272;6.554;2023-02-15T14:12:13;11.80;99.90
4701;DHT22;8724;51.272;6.554;2023-02-15T14:15:08;11.90;99.90
4701;DHT22;8724;51.272;6.554;2023-02-15T14:17:47;12.00;99.90
4701;DHT22;8724;51.272;6.554;2023-02-15T14:20:23;12.00;99.90
4701;DHT22;8724;51.272;6.554;2023-02-15T14:23:02;12.00;99.90
4701;DHT22;8724;51.272;6.554;2023-02-15T14:25:40;12.00;99.90
4701;DHT22;8724;51.272;6.554;2023-02-15T14:28:14;12.00;99.90
4701;DHT22;8724;51.272;6.554;2023-02-15T14:30:46;12.10;99.90
4701;DHT22;8724;51.272;6.554;2023-02-15T14:33:30;12.10;99.90
4701;DHT22;8724;51.272;6.554;2023-02-15T14:36:04;12.10;99.90
4701;DHT22;8724;51.272;6.554;2023-02-15T14:38:47;12.10;99.90
4701;DHT22;8724;51.272;6.554;2023-02-15T14:41:21;12.10;99.90
4701;DHT22;8724;51.272;6.554;2023-02-15T14:44:00;12.10;99.90
4701;DHT22;8724;51.272;6.554;2023-02-15T14:46:34;12.10;99.90
4701;DHT22;8724;51.272;6.554;2023-02-15T14:49:08;12.20;99.90
4701;DHT22;8724;51.272;6.554;2023-02-15T14:51:55;12.20;99.90
4701;DHT22;8724;51.272;6.554;2023-02-15T14:57:34;11.90;99.90
4701;DHT22;8724;51.272;6.554;2023-02-15T15:00:31;12.20;99.90
4701;DHT22;8724;51.272;6.554;2023-02-15T15:03:01;12.20;99.90
4701;DHT22;8724;51.272;6.554;2023-02-15T15:05:34;12.10;99.90
4701;DHT22;8724;51.272;6.554;2023-02-15T15:08:04;12.10;99.90
4701;DHT22;8724;51.272;6.554;2023-02-15T15:10:45;12.20;99.90
4701;DHT22;8724;51.272;6.554;2023-02-15T15:13:53;12.20;99.90
4701;DHT22;8724;51.272;6.554;2023-02-15T15:16:45;12.20;99.90
4701;DHT22;8724;51.272;6.554;2023-02-15T15:22:35;12.20;99.90
4701;DHT22;8724;51.272;6.554;2023-02-15T15:25:09;12.20;99.90
4701;DHT22;8724;51.272;6.554;2023-02-15T15:27:43;12.20;99.90
4701;DHT22;8724;51.272;6.554;2023-02-15T15:30:53;12.20;99.90
4701;DHT22;8724;51.272;6.554;2023-02-15T15:39:28;12.20;99.90
4701;DHT22;8724;51.272;6.554;2023-02-15T15:42:04;12.20;99.90
4701;DHT22;8724;51.272;6.554;2023-02-15T15:45:26;12.20;99.90
4701;DHT22;8724;51.272;6.554;2023-02-15T15:48:14;12.20;99.90
4701;DHT22;8724;51.272;6.554;2023-02-15T15:50:45;12.10;99.90
4701;DHT22;8724;51.272;6.554;2023-02-15T15:53:20;12.10;99.90
4701;DHT22;8724;51.272;6.554;2023-02-15T15:55:50;12.10;99.90
4701;DHT22;8724;51.272;6.554;2023-02-15T15:58:21;12.10;99.90
4701;DHT22;8724;51.272;6.554;2023-02-15T16:00:52;12.10;99.90
4701;DHT22;8724;51.272;6.554;2023-02-15T16:03:25;12.10;99.90
4701;DHT22;8724;51.272;6.554;2023-02-15T16:05:54;12.10;99.90
4701;DHT22;8724;51.272;6.554;2023-02-15T16:08:29;12.10;99.90
4701;DHT22;8724;51.272;6.554;2023-02-15T16:10:58;12.10;99.90
4701;DHT22;8724;51.272;6.554;2023-02-15T16:13:27;12.10;99.90
4701;DHT22;8724;51.272;6.554;2023-02-15T16:15:56;12.10;99.90
4701;DHT22;8724;51.272;6.554;2023-02-15T16:18:27;12.00;99.90
4701;DHT22;8724;51.272;6.554;2023-02-15T16:20:57;12.00;99.90
4701;DHT22;8724;51.272;6.554;2023-02-15T16:23:55;12.10;99.90
4701;DHT22;8724;51.272;6.554;2023-02-15T16:29:27;12.00;99.90
4701;DHT22;8724;51.272;6.554;2023-02-15T16:32:01;12.00;99.90
4701;DHT22;8724;51.272;6.554;2023-02-15T16:34:31;12.00;99.90
4701;DHT22;8724;51.272;6.554;2023-02-15T16:37:13;12.00;99.90
4701;DHT22;8724;51.272;6.554;2023-02-15T16:39:42;12.00;99.90
4701;DHT22;8724;51.272;6.554;2023-02-15T16:42:12;12.00;99.90
4701;DHT22;8724;51.272;6.554;2023-02-15T16:44:41;12.00;99.90
4701;DHT22;8724;51.272;6.554;2023-02-15T16:47:16;12.00;99.90
4701;DHT22;8724;51.272;6.554;2023-02-15T16:49:49;12.00;99.90
4701;DHT22;8724;51.272;6.554;2023-02-15T16:52:21;12.00;99.90
4701;DHT22;8724;51.272;6.554;2023-02-15T16:54:54;12.00;99.90
4701;DHT22;8724;51.272;6.554;2023-02-15T16:57:25;12.00;99.90
4701;DHT22;8724;51.272;6.554;2023-02-15T16:59:57;11.90;99.90
4701;DHT22;8724;51.272;6.554;2023-02-15T17:02:28;11.90;99.90
4701;DHT22;8724;51.272;6.554;2023-02-15T17:05:19;11.90;99.90
4701;DHT22;8724;51.272;6.554;2023-02-15T17:08:06;11.90;99.90
4701;DHT22;8724;51.272;6.554;2023-02-15T17:10:41;11.90;99.90
4701;DHT22;8724;51.272;6.554;2023-02-15T17:13:11;11.90;99.90
4701;DHT22;8724;51.272;6.554;2023-02-15T17:15:41;11.90;99.90
4701;DHT22;8724;51.272;6.554;2023-02-15T17:18:14;11.90;99.90
4701;DHT22;8724;51.272;6.554;2023-02-15T17:20:48;11.90;99.90
4701;DHT22;8724;51.272;6.554;2023-02-15T17:23:23;11.80;99.90
4701;DHT22;8724;51.272;6.554;2023-02-15T17:25:54;11.90;99.90
4701;DHT22;8724;51.272;6.554;2023-02-15T17:28:24;11.80;99.90
4701;DHT22;8724;51.272;6.554;2023-02-15T17:30:54;11.90;99.90
4701;DHT22;8724;51.272;6.554;2023-02-15T17:33:25;11.80;99.90
4701;DHT22;8724;51.272;6.554;2023-02-15T17:36:05;11.80;99.90
4701;DHT22;8724;51.272;6.554;2023-02-15T17:38:36;11.80;99.90
4701;DHT22;8724;51.272;6.554;2023-02-15T17:41:05;11.80;99.90
4701;DHT22;8724;51.272;6.554;2023-02-15T17:43:35;11.80;99.90
4701;DHT22;8724;51.272;6.554;2023-02-15T17:46:04;11.80;99.90